Time;durP1;ratioP1;P1;durP2;ratioP2;P2;SDS_P1;SDS_P2;PMS_P1;PMS_P2;Temp;Humidity;BMP_temperature;BMP_pressure;BME280_temperature;BME280_humidity;BME280_pressure;Samples;Min_cycle;Max_cycle;Signal;HPM_P1;HPM_P2
2021/01/29 00:00:22;;;;;;;19.05;13.75;;;9.20;99.90;;;;;;5082842;28;20040;-67
2021/01/29 00:02:52;;;;;;;27.33;20.77;;;9.30;99.90;;;;;;5089410;28;20016;-60
2021/01/29 00:05:20;;;;;;;18.45;15.90;;;9.00;99.90;;;;;;5080604;28;20048;-65
2021/01/29 00:07:46;;;;;;;20.67;15.05;;;9.10;99.90;;;;;;5089328;28;20025;-60
2021/01/29 00:10:13;;;;;;;24.73;16.85;;;9.10;99.90;;;;;;5082426;28;20039;-69
2021/01/29 00:12:39;;;;;;;20.60;16.42;;;9.10;99.90;;;;;;5089314;28;20050;-65
2021/01/29 00:15:10;;;;;;;28.77;20.20;;;9.10;99.90;;;;;;5079824;28;20037;-60
2021/01/29 00:17:36;;;;;;;24.23;18.73;;;9.10;99.90;;;;;;5088780;28;20019;-60
2021/01/29 00:20:04;;;;;;;25.52;18.42;;;8.90;99.90;;;;;;5079830;28;20040;-62
2021/01/29 00:22:30;;;;;;;21.63;18.48;;;9.00;99.90;;;;;;5087470;28;20480;-60
2021/01/29 00:24:55;;;;;;;19.13;16.98;;;9.00;99.90;;;;;;5086532;28;20092;-65
2021/01/29 00:27:21;;;;;;;18.92;16.17;;;9.10;99.90;;;;;;5087926;28;20082;-60
2021/01/29 00:29:47;;;;;;;21.20;16.15;;;9.20;99.90;;;;;;5085795;28;20173;-61
2021/01/29 00:32:12;;;;;;;22.25;16.48;;;9.30;99.90;;;;;;5087063;28;20481;-60
2021/01/29 00:34:38;;;;;;;20.20;16.73;;;9.30;99.90;;;;;;5085559;28;20032;-61
2021/01/29 00:37:04;;;;;;;18.52;15.35;;;9.20;99.90;;;;;;5081533;28;20441;-66
2021/01/29 00:39:29;;;;;;;23.85;15.18;;;9.30;99.90;;;;;;5085013;28;20036;-60
2021/01/29 00:41:55;;;;;;;18.13;14.65;;;9.40;99.90;;;;;;5080782;28;20021;-60
2021/01/29 00:44:21;;;;;;;19.08;15.00;;;9.40;99.90;;;;;;5086482;28;20032;-60
2021/01/29 00:46:46;;;;;;;21.88;15.73;;;9.50;99.90;;;;;;5092371;28;20544;-60
2021/01/29 00:49:12;;;;;;;22.95;17.67;;;9.40;99.90;;;;;;5087209;28;20043;-60
2021/01/29 00:51:38;;;;;;;29.60;19.60;;;9.50;99.90;;;;;;5092360;28;20030;-71
2021/01/29 00:54:03;;;;;;;26.70;19.02;;;9.20;99.90;;;;;;5087448;28;20032;-61
2021/01/29 00:56:29;;;;;;;23.27;18.42;;;9.10;99.90;;;;;;5091284;28;20095;-64
2021/01/29 00:58:55;;;;;;;22.02;16.77;;;9.00;99.90;;;;;;5090159;28;20056;-63
2021/01/29 01:01:20;;;;;;;17.55;14.77;;;9.10;99.90;;;;;;5086493;28;20429;-66
2021/01/29 01:03:46;;;;;;;17.27;14.25;;;9.10;99.90;;;;;;5090122;28;20031;-60
2021/01/29 01:06:11;;;;;;;15.73;13.95;;;9.30;99.90;;;;;;5083085;28;20120;-74
2021/01/29 01:08:37;;;;;;;21.33;14.48;;;9.40;99.90;;;;;;5090290;28;20572;-62
2021/01/29 01:11:03;;;;;;;16.80;14.02;;;9.30;99.90;;;;;;5091237;28;20027;-61
2021/01/29 01:13:28;;;;;;;18.02;13.48;;;9.60;99.90;;;;;;5090491;28;20487;-61
2021/01/29 01:15:54;;;;;;;18.02;14.88;;;9.60;99.90;;;;;;5083405;28;20377;-60
2021/01/29 01:18:20;;;;;;;19.33;16.77;;;9.40;99.90;;;;;;5090523;28;20028;-71
2021/01/29 01:20:46;;;;;;;17.63;14.45;;;9.40;99.90;;;;;;5082158;28;20055;-62
2021/01/29 01:23:11;;;;;;;21.40;15.13;;;9.60;99.90;;;;;;5091356;28;20027;-60
2021/01/29 01:25:37;;;;;;;17.98;15.35;;;9.40;99.90;;;;;;5087578;28;20077;-60
2021/01/29 01:28:03;;;;;;;19.52;14.52;;;9.40;99.90;;;;;;5092046;28;20069;-71
2021/01/29 01:30:35;;;;;;;19.55;15.60;;;9.40;99.90;;;;;;5086867;28;20035;-61
2021/01/29 01:33:01;;;;;;;15.63;12.77;;;9.30;99.90;;;;;;5078371;28;20012;-65
2021/01/29 01:35:26;;;;;;;14.27;12.45;;;9.20;99.90;;;;;;5085967;28;20035;-59
2021/01/29 01:37:53;;;;;;;14.48;12.98;;;9.10;99.90;;;;;;5090331;28;20085;-60
2021/01/29 01:40:25;;;;;;;15.63;11.93;;;9.40;99.90;;;;;;5086460;28;20024;-60
2021/01/29 01:42:51;;;;;;;14.98;13.63;;;9.20;99.90;;;;;;5089396;28;20411;-70
2021/01/29 01:45:26;;;;;;;10.77;9.65;;;9.40;99.90;;;;;;5085274;28;20048;-59
2021/01/29 01:48:01;;;;;;;14.80;11.07;;;9.50;99.90;;;;;;5088361;28;20023;-63
2021/01/29 01:50:37;;;;;;;13.38;11.23;;;9.60;99.90;;;;;;5084714;28;20133;-59
2021/01/29 01:53:05;;;;;;;;;;;9.50;99.90;;;;;;5091677;28;20032;-64
2021/01/29 01:55:37;;;;;;;10.73;9.80;;;9.60;99.90;;;;;;5084918;28;20119;-60
2021/01/29 01:58:04;;;;;;;11.70;10.68;;;9.60;99.90;;;;;;5091194;28;20036;-72
2021/01/29 02:00:31;;;;;;;12.02;10.85;;;9.50;99.90;;;;;;5084572;28;20024;-65
2021/01/29 02:03:21;;;;;;;12.05;9.93;;;9.50;99.90;;;;;;5091120;28;20027;-60
2021/01/29 02:05:47;;;;;;;11.10;10.13;;;9.50;99.90;;;;;;5073561;28;20032;-72
2021/01/29 02:08:15;;;;;;;11.10;10.07;;;9.50;99.90;;;;;;5080845;28;20070;-60
2021/01/29 02:10:41;;;;;;;13.82;9.57;;;9.60;99.90;;;;;;5085095;28;20538;-60
2021/01/29 02:13:07;;;;;;;10.48;9.38;;;9.50;99.90;;;;;;5090295;28;20046;-59
2021/01/29 02:15:37;;;;;;;12.95;9.02;;;9.60;99.90;;;;;;5085098;28;20020;-60
2021/01/29 02:18:07;;;;;;;12.27;10.73;;;9.60;99.90;;;;;;5090914;28;20012;-59
2021/01/29 02:20:59;;;;;;;10.65;9.75;;;9.50;99.90;;;;;;5078489;28;20499;-60
2021/01/29 02:23:45;;;;;;;10.88;9.88;;;9.50;99.90;;;;;;5081524;28;20024;-60
2021/01/29 02:26:37;;;;;;;9.43;8.50;;;9.60;99.90;;;;;;5087055;28;20040;-70
2021/01/29 02:29:09;;;;;;;9.82;8.82;;;9.80;99.90;;;;;;5088684;28;20055;-73
2021/01/29 02:32:03;;;;;;;10.80;9.80;;;9.70;99.90;;;;;;5081488;28;20035;-60
2021/01/29 02:34:46;;;;;;;10.23;9.20;;;9.70;99.90;;;;;;5087481;28;20060;-69
2021/01/29 02:37:30;;;;;;;11.77;10.52;;;9.80;99.90;;;;;;5089028;28;20028;-60
2021/01/29 02:40:07;;;;;;;11.95;10.73;;;9.80;99.90;;;;;;5080980;28;20048;-60
2021/01/29 02:43:06;;;;;;;18.00;11.57;;;9.60;99.90;;;;;;5087540;28;20032;-60
2021/01/29 02:45:51;;;;;;;15.80;11.15;;;9.60;99.90;;;;;;5073324;28;20055;-61
2021/01/29 02:48:39;;;;;;;13.30;11.13;;;9.50;99.90;;;;;;5076473;28;20056;-60
2021/01/29 02:51:16;;;;;;;14.82;11.43;;;9.60;99.90;;;;;;5085110;28;20025;-62
2021/01/29 02:53:58;;;;;;;14.60;11.48;;;9.80;99.90;;;;;;5088425;28;20444;-60
2021/01/29 02:56:31;;;;;;;18.88;13.07;;;9.60;99.90;;;;;;5082050;28;20012;-60
2021/01/29 02:59:25;;;;;;;14.90;11.88;;;9.60;99.90;;;;;;5086054;28;20028;-63
2021/01/29 03:01:57;;;;;;;17.05;11.30;;;9.70;99.90;;;;;;5082853;28;20024;-70
2021/01/29 03:04:49;;;;;;;11.88;10.77;;;9.70;99.90;;;;;;5083354;28;20827;-61
2021/01/29 03:07:27;;;;;;;14.55;12.15;;;9.90;99.90;;;;;;5082874;28;20030;-60
2021/01/29 03:10:05;;;;;;;11.27;10.23;;;10.00;99.90;;;;;;5083150;28;20448;-66
2021/01/29 03:12:55;;;;;;;11.45;10.25;;;10.00;99.90;;;;;;5089715;28;20032;-60
2021/01/29 03:15:30;;;;;;;12.95;11.48;;;9.90;99.90;;;;;;5083625;28;20031;-67
2021/01/29 03:18:01;;;;;;;13.77;11.77;;;9.90;99.90;;;;;;5089765;28;20113;-60
2021/01/29 03:20:47;;;;;;;17.33;13.88;;;10.00;99.90;;;;;;5083106;28;20032;-60
2021/01/29 03:23:23;;;;;;;15.43;13.75;;;9.80;99.90;;;;;;5089201;28;20016;-72
2021/01/29 03:25:57;;;;;;;20.00;13.80;;;9.70;99.90;;;;;;5084047;28;20507;-67
2021/01/29 03:28:27;;;;;;;16.55;14.60;;;9.70;99.90;;;;;;5088482;28;20094;-60
2021/01/29 03:30:55;;;;;;;15.60;13.63;;;9.70;99.90;;;;;;5087432;28;20388;-59
2021/01/29 03:33:25;;;;;;;17.17;13.38;;;9.50;99.90;;;;;;5088350;28;20016;-60
2021/01/29 03:35:59;;;;;;;17.08;13.60;;;9.50;99.90;;;;;;5086963;28;20103;-60
2021/01/29 03:38:44;;;;;;;14.38;12.00;;;9.50;99.90;;;;;;5087879;28;20048;-60
2021/01/29 03:41:19;;;;;;;12.57;10.70;;;9.60;99.90;;;;;;5085164;28;20020;-60
2021/01/29 03:43:48;;;;;;;13.13;11.25;;;9.60;99.90;;;;;;5087073;28;20094;-59
2021/01/29 03:46:26;;;;;;;14.23;12.10;;;9.80;99.90;;;;;;5086642;28;20109;-60
2021/01/29 03:49:07;;;;;;;14.80;12.38;;;9.80;99.90;;;;;;5086252;28;20039;-60
2021/01/29 03:52:02;;;;;;;12.18;10.98;;;9.70;99.90;;;;;;5085999;28;20020;-60
2021/01/29 03:55:01;;;;;;;16.02;12.63;;;9.90;99.90;;;;;;5085159;28;20023;-62
2021/01/29 03:57:33;;;;;;;13.70;12.10;;;9.90;99.90;;;;;;5082549;28;20028;-59
2021/01/29 04:00:14;;;;;;;17.38;12.70;;;9.90;99.90;;;;;;5060103;28;20412;-60
2021/01/29 04:02:55;;;;;;;14.27;11.35;;;9.90;99.90;;;;;;5087513;28;20029;-59
2021/01/29 04:05:26;;;;;;;13.20;11.90;;;10.00;99.90;;;;;;5086088;28;20449;-59
2021/01/29 04:07:59;;;;;;;11.63;10.43;;;10.10;99.90;;;;;;5088288;28;20059;-60
2021/01/29 04:10:28;;;;;;;14.82;12.70;;;10.10;99.90;;;;;;5086432;28;20124;-69
2021/01/29 04:13:18;;;;;;;13.52;11.15;;;10.00;99.90;;;;;;5089827;28;20016;-59
2021/01/29 04:15:47;;;;;;;12.40;11.15;;;9.90;99.90;;;;;;5077473;28;20682;-59
2021/01/29 04:18:23;;;;;;;14.00;12.32;;;10.00;99.90;;;;;;5090503;28;20060;-61
2021/01/29 04:21:07;;;;;;;12.07;10.88;;;10.10;99.90;;;;;;5092318;28;20016;-62
2021/01/29 04:24:19;;;;;;;13.93;11.20;;;10.10;99.90;;;;;;5090964;28;20687;-71
2021/01/29 04:26:49;;;;;;;15.07;13.13;;;10.10;99.90;;;;;;5035451;28;20062;-60
2021/01/29 04:29:18;;;;;;;15.25;12.93;;;10.00;99.90;;;;;;5074321;28;20063;-61
2021/01/29 04:31:48;;;;;;;15.77;12.63;;;9.90;99.90;;;;;;5091964;28;20129;-66
2021/01/29 04:34:23;;;;;;;15.88;12.63;;;10.10;99.90;;;;;;5087551;28;20028;-59
2021/01/29 04:36:53;;;;;;;15.43;13.20;;;10.00;99.90;;;;;;5073387;28;20066;-73
2021/01/29 04:39:39;;;;;;;21.48;14.48;;;10.00;99.90;;;;;;5081298;28;20134;-74
2021/01/29 04:42:05;;;;;;;18.05;14.27;;;10.00;99.90;;;;;;5089016;28;20016;-61
2021/01/29 04:44:36;;;;;;;16.45;13.88;;;10.10;99.90;;;;;;5085669;28;20028;-72
2021/01/29 04:47:19;;;;;;;19.30;15.00;;;10.20;99.90;;;;;;5088049;28;20048;-71
2021/01/29 04:49:57;;;;;;;13.52;12.10;;;10.10;99.90;;;;;;5084239;28;20065;-76
2021/01/29 04:52:59;;;;;;;14.20;11.07;;;10.20;99.90;;;;;;5084193;28;20079;-61
2021/01/29 04:55:44;;;;;;;18.42;11.88;;;10.30;99.90;;;;;;5082580;28;20030;-60
2021/01/29 04:58:22;;;;;;;13.48;11.00;;;10.20;99.90;;;;;;5091358;28;20115;-60
2021/01/29 05:01:23;;;;;;;14.25;10.60;;;10.30;99.90;;;;;;5090381;28;20043;-60
2021/01/29 05:04:04;;;;;;;14.63;10.90;;;10.30;99.90;;;;;;5089550;28;20040;-74
2021/01/29 05:06:47;;;;;;;14.68;11.45;;;10.30;99.90;;;;;;5091178;28;20042;-61
2021/01/29 05:09:27;;;;;;;12.35;10.50;;;10.40;99.90;;;;;;5087125;28;20084;-61
2021/01/29 05:12:17;;;;;;;15.88;11.38;;;10.40;99.90;;;;;;5089782;28;20606;-66
2021/01/29 05:15:12;;;;;;;13.65;10.63;;;10.40;99.90;;;;;;5089499;28;20684;-70
2021/01/29 05:18:10;;;;;;;12.38;9.75;;;10.50;99.90;;;;;;5063486;28;20112;-71
2021/01/29 05:20:47;;;;;;;9.98;8.32;;;10.50;99.90;;;;;;5088443;28;20122;-75
2021/01/29 05:23:51;;;;;;;9.13;7.97;;;10.60;99.90;;;;;;5090735;28;20032;-74
2021/01/29 05:26:42;;;;;;;13.02;8.48;;;10.50;99.90;;;;;;5090584;28;20040;-64
2021/01/29 05:29:29;;;;;;;15.88;9.77;;;10.60;99.90;;;;;;5055119;28;20040;-72
2021/01/29 05:32:26;;;;;;;11.43;8.40;;;10.70;99.90;;;;;;5088848;28;20058;-60
2021/01/29 05:35:17;;;;;;;13.45;8.07;;;10.70;99.90;;;;;;5084592;28;20158;-66
2021/01/29 05:38:01;;;;;;;10.25;8.40;;;10.90;99.90;;;;;;5081837;28;20036;-73
2021/01/29 05:40:45;;;;;;;12.00;8.40;;;10.80;99.90;;;;;;5089031;28;20020;-71
2021/01/29 05:43:32;;;;;;;8.55;7.65;;;10.90;99.90;;;;;;5090621;28;20028;-64
2021/01/29 05:46:23;;;;;;;12.88;8.77;;;10.90;99.90;;;;;;5089730;28;20056;-72
2021/01/29 05:48:55;;;;;;;10.27;8.40;;;10.90;99.90;;;;;;5088727;28;20270;-76
2021/01/29 05:51:50;;;;;;;12.75;8.52;;;11.00;99.90;;;;;;5087596;28;20024;-61
2021/01/29 05:54:37;;;;;;;16.45;8.98;;;10.90;99.90;;;;;;5088249;28;20038;-62
2021/01/29 05:57:12;;;;;;;15.90;9.30;;;10.70;99.90;;;;;;5090081;28;20020;-75
2021/01/29 05:59:52;;;;;;;18.90;9.25;;;10.70;99.90;;;;;;5088158;28;20032;-60
2021/01/29 06:02:35;;;;;;;12.77;8.75;;;10.90;99.90;;;;;;5090361;28;20020;-59
2021/01/29 06:05:11;;;;;;;15.07;9.15;;;10.70;99.90;;;;;;5088676;28;20029;-60
2021/01/29 06:07:43;;;;;;;;;;;10.70;99.90;;;;;;5090273;28;20035;-59
2021/01/29 06:10:29;;;;;;;16.80;9.43;;;10.80;99.90;;;;;;5086517;28;19908;-60
2021/01/29 06:13:10;;;;;;;15.52;9.13;;;10.80;99.90;;;;;;5088682;28;20028;-59
2021/01/29 06:15:48;;;;;;;17.98;9.93;;;10.80;99.90;;;;;;5080936;28;20038;-59
2021/01/29 06:18:32;;;;;;;16.45;9.43;;;10.90;99.90;;;;;;5083068;28;20032;-60
2021/01/29 06:21:01;;;;;;;17.65;9.20;;;10.80;99.90;;;;;;5076819;28;20051;-60
2021/01/29 06:24:03;;;;;;;13.10;8.55;;;10.80;99.90;;;;;;5082203;28;20388;-59
2021/01/29 06:27:05;;;;;;;17.83;8.20;;;10.70;99.90;;;;;;5088886;28;20039;-60
2021/01/29 06:29:55;;;;;;;12.60;8.25;;;10.80;99.90;;;;;;5086900;28;20024;-60
2021/01/29 06:32:44;;;;;;;14.85;8.90;;;10.90;99.90;;;;;;5086074;28;20028;-66
2021/01/29 06:35:22;;;;;;;16.48;8.23;;;10.90;99.90;;;;;;5088736;28;20505;-60
2021/01/29 06:37:59;;;;;;;11.23;8.23;;;10.90;99.90;;;;;;5089651;28;20115;-59
2021/01/29 06:40:42;;;;;;;11.63;9.23;;;10.80;99.90;;;;;;5086314;28;20034;-60
2021/01/29 06:43:48;;;;;;;11.90;8.70;;;10.80;99.90;;;;;;5089151;28;20507;-60
2021/01/29 06:46:20;;;;;;;14.07;8.95;;;10.80;99.90;;;;;;5077667;28;20526;-61
2021/01/29 06:48:48;;;;;;;13.80;10.07;;;10.90;99.90;;;;;;5075027;28;20492;-64
2021/01/29 06:51:21;;;;;;;21.27;10.77;;;10.90;99.90;;;;;;5084880;28;20024;-60
2021/01/29 06:53:55;;;;;;;13.18;9.98;;;10.90;99.90;;;;;;5088099;28;20090;-66
2021/01/29 06:56:53;;;;;;;14.60;9.73;;;10.80;99.90;;;;;;5085126;28;20059;-61
2021/01/29 06:59:49;;;;;;;14.70;9.73;;;11.00;99.90;;;;;;5085454;28;20035;-61
2021/01/29 07:02:26;;;;;;;12.48;9.27;;;10.90;99.90;;;;;;5086775;28;20020;-60
2021/01/29 07:05:15;;;;;;;20.67;10.52;;;11.10;99.90;;;;;;5084560;28;20093;-61
2021/01/29 07:08:07;;;;;;;17.25;12.05;;;11.00;99.90;;;;;;5085892;28;20032;-60
2021/01/29 07:11:05;;;;;;;21.05;13.40;;;11.00;99.90;;;;;;5082426;28;20407;-60
2021/01/29 07:13:36;;;;;;;26.65;15.15;;;11.10;99.90;;;;;;5075011;28;20103;-60
2021/01/29 07:16:25;;;;;;;26.02;14.57;;;10.90;99.90;;;;;;5085516;28;20416;-60
2021/01/29 07:19:39;;;;;;;24.50;13.68;;;10.90;99.90;;;;;;5087283;28;20023;-60
2021/01/29 07:22:13;;;;;;;16.20;10.82;;;11.00;99.90;;;;;;5072557;28;20039;-60
2021/01/29 07:25:05;;;;;;;23.88;11.38;;;11.10;99.90;;;;;;5073400;28;20044;-62
2021/01/29 07:27:39;;;;;;;19.80;9.40;;;11.30;99.90;;;;;;5050708;28;20055;-64
2021/01/29 07:30:46;;;;;;;16.58;7.93;;;11.50;99.90;;;;;;5078703;28;20024;-62
2021/01/29 07:33:42;;;;;;;14.90;8.05;;;11.50;99.90;;;;;;5089344;28;20045;-61
2021/01/29 07:36:35;;;;;;;10.65;7.32;;;11.50;99.90;;;;;;5075847;28;20107;-61
2021/01/29 07:39:37;;;;;;;11.77;7.68;;;11.60;99.90;;;;;;5085375;28;20024;-65
2021/01/29 07:42:33;;;;;;;9.77;7.00;;;11.60;99.90;;;;;;5083257;28;20047;-60
2021/01/29 07:45:26;;;;;;;11.93;7.32;;;11.70;99.90;;;;;;5088055;28;20032;-62
2021/01/29 07:48:09;;;;;;;14.68;7.82;;;11.70;99.90;;;;;;5081322;28;20032;-60
2021/01/29 07:50:52;;;;;;;15.98;7.68;;;11.80;99.90;;;;;;5080838;28;20028;-60
2021/01/29 07:53:17;;;;;;;11.38;7.20;;;11.80;99.90;;;;;;5088644;28;20016;-61
2021/01/29 07:56:29;;;;;;;9.90;6.43;;;11.80;99.90;;;;;;5083086;28;20081;-61
2021/01/29 07:59:26;;;;;;;11.55;7.05;;;11.80;99.90;;;;;;5064243;28;20036;-61
2021/01/29 08:01:58;;;;;;;9.10;6.45;;;11.70;99.90;;;;;;5081505;28;20107;-61
2021/01/29 08:04:47;;;;;;;9.63;5.30;;;11.80;99.90;;;;;;5083113;28;20056;-60
2021/01/29 08:07:25;;;;;;;6.43;5.32;;;11.80;99.90;;;;;;5053138;28;20037;-61
2021/01/29 08:09:59;;;;;;;5.28;4.32;;;11.80;99.90;;;;;;5080813;28;20016;-61
2021/01/29 08:12:25;;;;;;;6.82;4.60;;;11.90;99.90;;;;;;5089420;28;20032;-61
2021/01/29 08:15:16;;;;;;;4.30;3.88;;;11.90;99.90;;;;;;5082595;28;20111;-60
2021/01/29 08:18:00;;;;;;;4.32;3.47;;;12.00;99.90;;;;;;5089055;28;20488;-61
2021/01/29 08:21:08;;;;;;;4.40;3.70;;;12.00;99.90;;;;;;5082564;28;20017;-61
2021/01/29 08:24:02;;;;;;;3.90;3.10;;;12.00;99.90;;;;;;5061038;28;20124;-61
2021/01/29 08:26:41;;;;;;;4.20;3.13;;;12.00;99.90;;;;;;5086707;28;20067;-61
2021/01/29 08:29:35;;;;;;;5.10;2.75;;;12.10;99.90;;;;;;5066565;28;20499;-61
2021/01/29 08:32:20;;;;;;;4.88;3.10;;;12.10;99.90;;;;;;5069611;28;20025;-61
2021/01/29 08:34:58;;;;;;;6.28;3.03;;;12.20;99.90;;;;;;5079564;28;20012;-61
2021/01/29 08:37:42;;;;;;;5.13;2.65;;;12.10;99.90;;;;;;5073289;28;20035;-61
2021/01/29 08:40:24;;;;;;;6.88;2.45;;;12.10;99.90;;;;;;5084612;28;20020;-61
2021/01/29 08:42:57;;;;;;;7.65;2.50;;;12.10;99.90;;;;;;5085756;28;20492;-61
2021/01/29 08:45:33;;;;;;;8.02;2.83;;;12.10;99.90;;;;;;5079436;28;20451;-61
2021/01/29 08:48:07;;;;;;;6.53;2.20;;;12.30;99.90;;;;;;5078953;28;20120;-60
2021/01/29 08:51:01;;;;;;;9.18;2.38;;;12.30;99.90;;;;;;5078862;28;20021;-61
2021/01/29 08:53:42;;;;;;;15.75;2.88;;;12.30;99.90;;;;;;5080633;28;20249;-60
2021/01/29 08:56:13;;;;;;;10.68;3.45;;;12.30;99.90;;;;;;5084195;28;20024;-61
2021/01/29 08:59:00;;;;;;;9.82;2.70;;;12.30;99.90;;;;;;5090689;28;20017;-60
2021/01/29 09:01:32;;;;;;;9.00;2.63;;;12.30;99.90;;;;;;5089525;28;20040;-61
2021/01/29 09:04:20;;;;;;;15.60;3.25;;;12.20;99.90;;;;;;5090357;28;20368;-61
2021/01/29 09:06:48;;;;;;;15.85;3.00;;;12.30;99.90;;;;;;5083262;28;20180;-60
2021/01/29 09:09:21;;;;;;;12.82;2.95;;;12.20;99.90;;;;;;5088874;28;20024;-61
2021/01/29 09:11:52;;;;;;;19.48;3.60;;;12.20;99.90;;;;;;5083701;28;20020;-61
2021/01/29 09:14:41;;;;;;;12.63;3.00;;;12.30;99.90;;;;;;5087958;28;20059;-61
2021/01/29 09:17:13;;;;;;;14.50;3.25;;;12.20;99.90;;;;;;5068098;28;20545;-61
2021/01/29 09:19:43;;;;;;;15.23;3.03;;;12.30;99.90;;;;;;5086723;28;20035;-61
2021/01/29 09:22:24;;;;;;;10.35;3.20;;;12.30;99.90;;;;;;5088361;28;20013;-61
2021/01/29 09:25:10;;;;;;;14.15;3.85;;;12.30;99.90;;;;;;5089558;28;20498;-65
2021/01/29 09:28:04;;;;;;;16.15;3.53;;;12.30;99.90;;;;;;5087166;28;20107;-65
2021/01/29 09:30:36;;;;;;;16.80;3.88;;;12.40;99.90;;;;;;5082989;28;20036;-65
2021/01/29 09:33:32;;;;;;;14.10;3.70;;;12.50;99.90;;;;;;5091715;28;20016;-64
2021/01/29 09:36:12;;;;;;;16.05;3.95;;;12.50;99.90;;;;;;5087646;28;20137;-64
2021/01/29 09:38:49;;;;;;;17.20;3.28;;;12.50;99.90;;;;;;5089811;28;20510;-64
2021/01/29 09:41:40;;;;;;;20.17;4.03;;;12.50;99.90;;;;;;5087414;28;20086;-64
2021/01/29 09:44:15;;;;;;;21.58;3.45;;;12.50;99.90;;;;;;5087249;28;20028;-64
2021/01/29 09:46:44;;;;;;;13.00;3.38;;;12.50;99.90;;;;;;5090605;28;20572;-64
2021/01/29 09:49:20;;;;;;;17.58;3.60;;;12.50;99.90;;;;;;5086416;28;20616;-61
2021/01/29 09:51:52;;;;;;;18.02;3.40;;;12.50;99.90;;;;;;5090201;28;20024;-61
2021/01/29 09:54:51;;;;;;;18.95;3.47;;;12.70;99.90;;;;;;5085447;28;20508;-61
2021/01/29 09:57:33;;;;;;;21.88;3.65;;;12.60;99.90;;;;;;5086941;28;20519;-61
2021/01/29 10:00:10;;;;;;;24.17;4.30;;;12.50;99.90;;;;;;5088302;28;20024;-60
2021/01/29 10:02:56;;;;;;;14.93;3.00;;;12.70;99.90;;;;;;5088898;28;20445;-60
2021/01/29 10:05:35;;;;;;;15.00;3.83;;;12.90;99.90;;;;;;5088413;28;20032;-60
2021/01/29 10:08:28;;;;;;;15.88;3.55;;;12.90;99.90;;;;;;5090586;28;20032;-60
2021/01/29 10:10:59;;;;;;;19.98;3.25;;;12.90;99.90;;;;;;5085900;28;20028;-61
2021/01/29 10:13:44;;;;;;;18.45;3.65;;;13.10;99.90;;;;;;5090188;28;20016;-63
2021/01/29 10:16:16;;;;;;;12.57;3.00;;;13.10;99.90;;;;;;5086260;28;20023;-62
2021/01/29 10:18:50;;;;;;;20.42;4.43;;;13.10;99.90;;;;;;5089220;28;20020;-62
2021/01/29 10:21:19;;;;;;;20.50;3.35;;;13.10;99.90;;;;;;5091988;28;20035;-61
2021/01/29 10:23:54;;;;;;;20.45;3.30;;;13.00;99.90;;;;;;5089411;28;20028;-61
2021/01/29 10:26:31;;;;;;;17.38;3.80;;;13.10;99.90;;;;;;5088210;28;20128;-60
2021/01/29 10:29:20;;;;;;;16.38;3.60;;;13.00;99.90;;;;;;5102697;28;20548;-60
2021/01/29 10:32:12;;;;;;;16.42;3.35;;;13.10;99.90;;;;;;5080979;28;20102;-61
2021/01/29 10:34:42;;;;;;;19.77;3.70;;;12.90;99.90;;;;;;5086401;28;20020;-61
2021/01/29 10:37:33;;;;;;;22.60;2.97;;;13.00;99.90;;;;;;5090809;28;20032;-63
2021/01/29 10:40:29;;;;;;;17.75;3.55;;;12.90;99.90;;;;;;5086608;28;20024;-61
2021/01/29 10:42:57;;;;;;;19.45;3.63;;;13.00;99.90;;;;;;5079862;28;20480;-62
2021/01/29 10:46:15;;;;;;;13.82;3.50;;;13.10;99.90;;;;;;5087470;28;20048;-60
2021/01/29 10:49:01;;;;;;;17.13;3.28;;;13.20;99.90;;;;;;5005618;28;20617;-60
2021/01/29 10:52:01;;;;;;;20.23;3.38;;;13.10;99.90;;;;;;5086778;28;20552;-60
2021/01/29 10:54:38;;;;;;;19.20;4.20;;;13.20;99.90;;;;;;5072552;28;20028;-59
2021/01/29 10:57:21;;;;;;;12.77;3.13;;;13.30;99.90;;;;;;5089630;28;20107;-60
2021/01/29 11:00:15;;;;;;;20.25;3.83;;;13.20;99.90;;;;;;5083365;28;20033;-59
2021/01/29 11:02:59;;;;;;;17.90;3.00;;;13.30;99.90;;;;;;5086307;28;20028;-59
2021/01/29 11:05:29;;;;;;;15.13;3.72;;;13.40;99.90;;;;;;5083793;28;20485;-60
2021/01/29 11:08:24;;;;;;;13.30;2.97;;;13.40;99.90;;;;;;5078223;28;20012;-59
2021/01/29 11:11:09;;;;;;;16.67;3.20;;;13.40;99.90;;;;;;5087319;28;20411;-60
2021/01/29 11:13:55;;;;;;;16.20;3.00;;;13.40;99.90;;;;;;5088086;28;20012;-60
2021/01/29 11:16:28;;;;;;;21.25;4.03;;;13.50;99.90;;;;;;5086119;28;20028;-60
2021/01/29 11:19:00;;;;;;;18.13;3.83;;;13.70;99.90;;;;;;5087157;28;20174;-60
2021/01/29 11:21:38;;;;;;;20.40;3.20;;;13.80;99.90;;;;;;5086303;28;20458;-60
2021/01/29 11:24:04;;;;;;;15.40;3.80;;;13.80;99.90;;;;;;5071115;28;20558;-60
2021/01/29 11:26:33;;;;;;;15.77;2.88;;;13.80;99.90;;;;;;5085933;28;20032;-60
2021/01/29 11:29:04;;;;;;;17.95;3.60;;;13.90;99.90;;;;;;5086556;28;20020;-60
2021/01/29 11:31:48;;;;;;;11.60;2.95;;;14.00;99.90;;;;;;5082824;28;20446;-60
2021/01/29 11:34:28;;;;;;;9.27;2.47;;;14.00;99.90;;;;;;5084571;28;20029;-60
2021/01/29 11:37:02;;;;;;;13.07;3.45;;;13.90;99.90;;;;;;5081450;28;20020;-60
2021/01/29 11:39:51;;;;;;;11.68;2.67;;;14.20;99.90;;;;;;5082950;28;20028;-59
2021/01/29 11:42:36;;;;;;;13.02;2.85;;;14.20;99.90;;;;;;5078728;28;20532;-60
2021/01/29 11:45:18;;;;;;;9.63;2.35;;;14.20;99.90;;;;;;5082628;28;20664;-60
2021/01/29 11:48:17;;;;;;;17.73;3.58;;;14.40;99.90;;;;;;5089233;28;20035;-70
2021/01/29 11:50:59;;;;;;;12.73;3.22;;;14.50;99.90;;;;;;5083602;28;20039;-61
2021/01/29 11:53:25;;;;;;;10.13;2.17;;;14.20;99.90;;;;;;5088199;28;20504;-62
2021/01/29 11:55:58;;;;;;;17.33;2.70;;;14.20;99.90;;;;;;5076277;28;20062;-65
2021/01/29 11:58:44;;;;;;;14.82;3.00;;;14.30;99.90;;;;;;5083579;28;20024;-63
2021/01/29 12:01:16;;;;;;;8.10;2.55;;;14.40;99.90;;;;;;5079606;28;20044;-62
2021/01/29 12:03:55;;;;;;;13.20;2.70;;;14.60;99.90;;;;;;5087634;28;20035;-62
2021/01/29 12:06:32;;;;;;;14.55;2.95;;;14.70;99.90;;;;;;5084824;28;20065;-61
2021/01/29 12:09:24;;;;;;;13.60;3.50;;;14.60;99.90;;;;;;5083581;28;20028;-61
2021/01/29 12:12:02;;;;;;;15.73;3.65;;;14.60;99.90;;;;;;5086957;28;20103;-61
2021/01/29 12:14:53;;;;;;;12.18;2.97;;;14.60;99.90;;;;;;5086766;28;20107;-61
2021/01/29 12:17:25;;;;;;;12.98;4.68;;;15.00;99.90;;;;;;5085615;28;20091;-62
2021/01/29 12:19:59;;;;;;;13.88;3.58;;;15.20;99.90;;;;;;5085745;28;20461;-62
2021/01/29 12:22:51;;;;;;;14.88;3.75;;;15.20;99.90;;;;;;5088934;28;20031;-59
2021/01/29 12:25:35;;;;;;;12.27;3.28;;;15.30;99.90;;;;;;5076518;28;20449;-59
2021/01/29 12:28:48;;;;;;;14.60;3.33;;;15.40;99.90;;;;;;5087128;28;20024;-59
2021/01/29 12:31:30;;;;;;;17.42;3.45;;;15.40;99.90;;;;;;5029614;28;20173;-60
2021/01/29 12:34:17;;;;;;;16.52;3.72;;;15.90;99.90;;;;;;5030766;28;20082;-59
2021/01/29 12:37:02;;;;;;;21.13;6.25;;;16.10;99.90;;;;;;5069261;28;20060;-59
2021/01/29 12:39:39;;;;;;;13.45;3.70;;;16.00;99.90;;;;;;5086858;28;20103;-59
2021/01/29 12:42:25;;;;;;;11.25;3.25;;;16.00;99.90;;;;;;5086605;28;20020;-59
2021/01/29 12:45:02;;;;;;;10.05;3.92;;;15.60;99.90;;;;;;5085170;28;20024;-59
2021/01/29 12:47:48;;;;;;;15.82;4.50;;;15.30;99.90;;;;;;5088926;28;20040;-59
2021/01/29 12:50:43;;;;;;;10.63;3.72;;;15.60;99.90;;;;;;5085860;28;20039;-59
2021/01/29 12:53:20;;;;;;;20.00;4.93;;;15.50;99.90;;;;;;5086739;28;20043;-59
2021/01/29 12:56:10;;;;;;;10.88;4.50;;;15.80;99.90;;;;;;5087075;28;20024;-59
2021/01/29 12:58:51;;;;;;;16.38;4.25;;;15.90;99.90;;;;;;5090532;28;20024;-59
2021/01/29 13:01:35;;;;;;;15.35;3.90;;;15.90;99.90;;;;;;5087098;28;20020;-59
2021/01/29 13:04:21;;;;;;;10.00;3.85;;;15.60;99.90;;;;;;5089268;28;20060;-59
2021/01/29 13:07:09;;;;;;;14.52;4.07;;;15.50;99.90;;;;;;5088099;28;20561;-59
2021/01/29 13:09:38;;;;;;;12.35;4.15;;;15.50;99.90;;;;;;5086139;28;20113;-59
2021/01/29 13:12:38;;;;;;;13.55;3.60;;;15.90;99.90;;;;;;5087544;28;20051;-59
2021/01/29 13:15:14;;;;;;;10.95;3.88;;;15.80;99.90;;;;;;5077502;28;20032;-59
2021/01/29 13:17:47;;;;;;;11.63;3.25;;;15.60;99.90;;;;;;5092182;28;20020;-59
2021/01/29 13:20:14;;;;;;;21.13;4.35;;;15.50;99.90;;;;;;5085502;28;20459;-59
2021/01/29 13:22:46;;;;;;;14.15;4.10;;;15.60;99.90;;;;;;5091241;28;20028;-58
2021/01/29 13:25:17;;;;;;;13.73;3.83;;;15.70;99.90;;;;;;5082394;28;20122;-59
2021/01/29 13:28:07;;;;;;;15.55;3.40;;;15.60;99.90;;;;;;5091099;28;20580;-59
2021/01/29 13:30:38;;;;;;;9.27;3.08;;;15.70;99.90;;;;;;5086030;28;20036;-58
2021/01/29 13:33:23;;;;;;;14.93;3.30;;;15.60;99.90;;;;;;5083613;28;20120;-59
2021/01/29 13:36:04;;;;;;;10.35;3.25;;;15.60;99.90;;;;;;5084193;28;20024;-59
2021/01/29 13:38:33;;;;;;;10.10;3.58;;;15.30;99.90;;;;;;5090461;28;20024;-59
2021/01/29 13:41:16;;;;;;;15.45;3.22;;;15.20;99.90;;;;;;5086031;28;20044;-59